Terminal Aerodrome Forecast
Issued by NWS

Home | Current Version | Previous Version | Text Only | Print | Product List | Glossary On
Versions: 1 2 3 4 5 6 7 8 9 10 11 12 13 14 15 16 17 18 19 20 21 22 23 24 25 26 27 28 29 30 31 32 33
000
FTUS44 KHGX 250309 AAA
TAFUTS
TAF AMD
KUTS 250309Z 2503/2524 VRB06KT P6SM SCT025 SCT250
     FM250600 VRB05KT P6SM SCT005 BKN015
      TEMPO 2509/2513 BKN005
     FM251600 15012KT P6SM SCT015 BKN150
     FM252100 14012KT P6SM VCSH SCT025 OVC150=

USA.gov is the U.S. government's official web portal to all federal, state and local government web resources and services.